Custer, KY (40115)

10:23 AM CDT on April 19, 2015 (GMT -0500)
Eveleigh Road | | Change Station
CLOSE
Current Station
Personal Weather Station
Location: Leitchfield, KY
Elevation: 670 ft
Nearby Weather Stations
Active Advisory: Flood Warning

Elev 670 ft 37.58 °N, 86.34 °W | Updated 2 seconds ago

Rain
Rain
65.1 °F
Feels Like 65.1 °F
N
2.2
Wind Variable Wind from NW
Gusts 5.4 mph

Today
High -- | Low -- °F
--% Chance of Precip.
Yesterday
High -- | Low -- °F
Precip. -- in
6:04 AM 7:24 PM
New Moon, 1% visible
Pressure 29.66 in
Visibility 8.0 miles
Clouds Overcast 700 ft
Dew Point 65 °F
Humidity 99%
Rainfall 0.65 in
Snow Depth Not available.
UV 2 out of 12
Pollen 1.10 out of 12
Air Quality Not available.
Flu Activity Local Activity
METAR KFTK 191458Z 08008KT 8SM -RA OVC007 18/17 A2966 RMK AO2A OVC V BKN SLP042 P0002 60012 T01780170 57028

More Conditions Fewer Conditions

Pressure 29.66 in
Visibility 8.0 miles
Clouds Overcast 700 ft
Dew Point 65 °F
Humidity 99%
Rainfall 0.65 in
Snow Depth Not available.
UV 2 out of 12
Pollen 1.10 out of 12
Air Quality Not available.
Flu Activity Local Activity
METAR KFTK 191458Z 08008KT 8SM -RA OVC007 18/17 A2966 RMK AO2A OVC V BKN SLP042 P0002 60012 T01780170 57028

More Conditions Fewer Conditions

10-Day Weather Forecast

Almanac

Astronomy

Apr. 19, 2015 Rise Set
Actual Time
Civil Twilight
Nautical Twilight
Astronomical Twilight
Moon
Length of Visible Light
Length of Day
Tomorrow will be .
, % of the Moon is Illuminated

Today's Extremes

State Highs State Lows

Community

WunderPhotos

Upload Photos

1,814,834 photos uploaded!

WunderBlogs® & News

Nearby

Air Quality

  Air Quality AQ Index Pollutant
Not available.

Snow Depth

Station Depth Elevation

Earthquake Activity

City Distance Mag. Time & Date
Minimum magnitude displayed is 2.5.

Coastal Water Temperatures

Place Temperature

Stations

Nearby Weather Stations

Station Location Temp. Windchill Dew Point Humidity Wind Precip. Elev Updated Type
                   
Flood Warning
Statement as of 10:29 AM CDT on April 19, 2015

The Flood Warning continues for
the Ohio River at Cannelton lock.
* Until Monday evening.
* At 10:00 am Sunday the stage was 42.2 feet.
* Flood stage is 42.0 feet.
* Minor flooding is occurring and minor flooding is forecast.
* Forecast... the river will continue to fall to below flood stage by
Monday early afternoon.
* Impact... at 42.0 feet... agricultural flooding begins near Cloverport
and Cannelton. Highway 66 floods near Derby and Dexter. Rocky Point
girl scout Camp is affected.
* Flood history... this crest compares to a previous crest of 41.6
feet on Feb 28 2003.


Lat... Lon 3822 8636 3796 8659 3794 8670 3783 8675
      3787 8652 3809 8636